sensor_id;sensor_type;location;lat;lon;timestamp;temperature;humidity
25582;DHT22;13462;50.764;4.332;2023-05-01T00:01:17;14.10;99.90
25582;DHT22;13462;50.764;4.332;2023-05-01T00:03:42;14.10;99.90
25582;DHT22;13462;50.764;4.332;2023-05-01T00:06:08;14.20;99.90
25582;DHT22;13462;50.764;4.332;2023-05-01T00:08:34;14.20;99.90
25582;DHT22;13462;50.764;4.332;2023-05-01T00:11:03;14.10;99.90
25582;DHT22;13462;50.764;4.332;2023-05-01T00:13:29;14.10;99.90
25582;DHT22;13462;50.764;4.332;2023-05-01T00:15:55;14.00;99.90
25582;DHT22;13462;50.764;4.332;2023-05-01T00:18:20;14.00;99.90
25582;DHT22;13462;50.764;4.332;2023-05-01T00:20:46;14.00;99.90
25582;DHT22;13462;50.764;4.332;2023-05-01T00:23:11;14.00;99.90
25582;DHT22;13462;50.764;4.332;2023-05-01T00:25:38;14.00;99.90
25582;DHT22;13462;50.764;4.332;2023-05-01T00:28:03;14.00;99.90
25582;DHT22;13462;50.764;4.332;2023-05-01T00:30:33;14.00;99.90
25582;DHT22;13462;50.764;4.332;2023-05-01T00:32:59;14.00;99.90
25582;DHT22;13462;50.764;4.332;2023-05-01T00:35:26;14.00;99.90
25582;DHT22;13462;50.764;4.332;2023-05-01T00:37:51;14.10;99.90
25582;DHT22;13462;50.764;4.332;2023-05-01T00:40:17;14.00;99.90
25582;DHT22;13462;50.764;4.332;2023-05-01T00:42:42;14.00;99.90
25582;DHT22;13462;50.764;4.332;2023-05-01T00:45:08;13.90;99.90
25582;DHT22;13462;50.764;4.332;2023-05-01T00:47:34;13.90;99.90
25582;DHT22;13462;50.764;4.332;2023-05-01T00:50:00;13.90;99.90
25582;DHT22;13462;50.764;4.332;2023-05-01T00:52:25;13.90;99.90
25582;DHT22;13462;50.764;4.332;2023-05-01T00:54:51;13.70;99.90
25582;DHT22;13462;50.764;4.332;2023-05-01T00:57:18;13.60;99.90
25582;DHT22;13462;50.764;4.332;2023-05-01T00:59:43;13.60;99.90
25582;DHT22;13462;50.764;4.332;2023-05-01T01:02:09;13.60;99.90
25582;DHT22;13462;50.764;4.332;2023-05-01T01:04:37;13.50;99.90
25582;DHT22;13462;50.764;4.332;2023-05-01T01:12:23;13.50;99.90
25582;DHT22;13462;50.764;4.332;2023-05-01T01:14:50;13.40;99.90
25582;DHT22;13462;50.764;4.332;2023-05-01T01:17:34;13.40;99.90
25582;DHT22;13462;50.764;4.332;2023-05-01T01:22:49;13.40;99.90
25582;DHT22;13462;50.764;4.332;2023-05-01T01:31:10;13.40;99.90
25582;DHT22;13462;50.764;4.332;2023-05-01T01:36:07;13.20;99.90
25582;DHT22;13462;50.764;4.332;2023-05-01T01:38:42;13.10;99.90
25582;DHT22;13462;50.764;4.332;2023-05-01T01:41:13;13.10;99.90
25582;DHT22;13462;50.764;4.332;2023-05-01T01:43:47;13.10;99.90
25582;DHT22;13462;50.764;4.332;2023-05-01T01:46:15;13.10;99.90
25582;DHT22;13462;50.764;4.332;2023-05-01T01:48:42;13.10;99.90
25582;DHT22;13462;50.764;4.332;2023-05-01T01:51:12;13.00;99.90
25582;DHT22;13462;50.764;4.332;2023-05-01T01:53:38;13.00;99.90
25582;DHT22;13462;50.764;4.332;2023-05-01T01:56:05;13.00;99.90
25582;DHT22;13462;50.764;4.332;2023-05-01T01:58:32;12.90;99.90
25582;DHT22;13462;50.764;4.332;2023-05-01T02:01:00;12.80;99.90
25582;DHT22;13462;50.764;4.332;2023-05-01T02:03:26;12.70;99.90
25582;DHT22;13462;50.764;4.332;2023-05-01T02:05:53;12.70;99.90
25582;DHT22;13462;50.764;4.332;2023-05-01T02:08:19;12.70;99.90
25582;DHT22;13462;50.764;4.332;2023-05-01T02:10:45;12.70;99.90
25582;DHT22;13462;50.764;4.332;2023-05-01T02:13:11;12.70;99.90
25582;DHT22;13462;50.764;4.332;2023-05-01T02:15:37;12.70;99.90
25582;DHT22;13462;50.764;4.332;2023-05-01T02:18:04;12.80;99.90
25582;DHT22;13462;50.764;4.332;2023-05-01T02:20:30;12.80;99.90
25582;DHT22;13462;50.764;4.332;2023-05-01T02:22:55;12.80;99.90
25582;DHT22;13462;50.764;4.332;2023-05-01T02:25:22;12.70;99.90
25582;DHT22;13462;50.764;4.332;2023-05-01T02:28:00;12.70;99.90
25582;DHT22;13462;50.764;4.332;2023-05-01T02:30:26;12.70;99.90
25582;DHT22;13462;50.764;4.332;2023-05-01T02:32:52;12.70;99.90
25582;DHT22;13462;50.764;4.332;2023-05-01T02:35:18;12.60;99.90
25582;DHT22;13462;50.764;4.332;2023-05-01T02:37:43;12.60;99.90
25582;DHT22;13462;50.764;4.332;2023-05-01T02:40:10;12.60;99.90
25582;DHT22;13462;50.764;4.332;2023-05-01T02:42:35;12.60;99.90
25582;DHT22;13462;50.764;4.332;2023-05-01T02:45:03;12.70;99.90
25582;DHT22;13462;50.764;4.332;2023-05-01T02:47:30;12.80;99.90
25582;DHT22;13462;50.764;4.332;2023-05-01T02:49:58;12.90;99.90
25582;DHT22;13462;50.764;4.332;2023-05-01T02:52:23;12.90;99.90
25582;DHT22;13462;50.764;4.332;2023-05-01T02:54:49;12.80;99.90
25582;DHT22;13462;50.764;4.332;2023-05-01T02:57:18;12.70;99.90
25582;DHT22;13462;50.764;4.332;2023-05-01T02:59:44;12.50;99.90
25582;DHT22;13462;50.764;4.332;2023-05-01T03:02:10;12.40;99.90
25582;DHT22;13462;50.764;4.332;2023-05-01T03:04:36;12.50;99.90
25582;DHT22;13462;50.764;4.332;2023-05-01T03:07:01;12.60;99.90
25582;DHT22;13462;50.764;4.332;2023-05-01T03:09:29;12.70;99.90
25582;DHT22;13462;50.764;4.332;2023-05-01T03:11:55;12.70;99.90
25582;DHT22;13462;50.764;4.332;2023-05-01T03:14:21;12.80;99.90
25582;DHT22;13462;50.764;4.332;2023-05-01T03:16:47;12.70;99.90
25582;DHT22;13462;50.764;4.332;2023-05-01T03:19:12;12.60;99.90
25582;DHT22;13462;50.764;4.332;2023-05-01T03:21:38;12.50;99.90
25582;DHT22;13462;50.764;4.332;2023-05-01T03:24:03;12.50;99.90
25582;DHT22;13462;50.764;4.332;2023-05-01T03:26:29;12.30;99.90
25582;DHT22;13462;50.764;4.332;2023-05-01T03:28:54;12.40;99.90
25582;DHT22;13462;50.764;4.332;2023-05-01T03:31:20;12.50;99.90
25582;DHT22;13462;50.764;4.332;2023-05-01T03:33:46;12.30;99.90
25582;DHT22;13462;50.764;4.332;2023-05-01T03:36:12;12.30;99.90
25582;DHT22;13462;50.764;4.332;2023-05-01T03:38:37;12.50;99.90
25582;DHT22;13462;50.764;4.332;2023-05-01T03:41:03;12.40;99.90
25582;DHT22;13462;50.764;4.332;2023-05-01T03:43:29;12.50;99.90
25582;DHT22;13462;50.764;4.332;2023-05-01T03:45:55;12.40;99.90
25582;DHT22;13462;50.764;4.332;2023-05-01T03:48:21;12.40;99.90
25582;DHT22;13462;50.764;4.332;2023-05-01T03:50:47;12.40;99.90
25582;DHT22;13462;50.764;4.332;2023-05-01T03:53:13;12.40;99.90
25582;DHT22;13462;50.764;4.332;2023-05-01T03:55:38;12.20;99.90
25582;DHT22;13462;50.764;4.332;2023-05-01T03:58:04;12.20;99.90
25582;DHT22;13462;50.764;4.332;2023-05-01T04:00:30;12.30;99.90
25582;DHT22;13462;50.764;4.332;2023-05-01T04:02:56;12.30;99.90
25582;DHT22;13462;50.764;4.332;2023-05-01T04:05:22;12.40;99.90
25582;DHT22;13462;50.764;4.332;2023-05-01T04:07:47;12.40;99.90
25582;DHT22;13462;50.764;4.332;2023-05-01T04:10:13;12.20;99.90
25582;DHT22;13462;50.764;4.332;2023-05-01T04:12:39;12.10;99.90
25582;DHT22;13462;50.764;4.332;2023-05-01T04:15:05;12.10;99.90
25582;DHT22;13462;50.764;4.332;2023-05-01T04:17:31;12.00;99.90
25582;DHT22;13462;50.764;4.332;2023-05-01T04:19:57;12.00;99.90
25582;DHT22;13462;50.764;4.332;2023-05-01T04:22:22;11.90;99.90
25582;DHT22;13462;50.764;4.332;2023-05-01T04:24:48;11.90;99.90
25582;DHT22;13462;50.764;4.332;2023-05-01T04:27:13;12.00;99.90
25582;DHT22;13462;50.764;4.332;2023-05-01T04:29:39;12.10;99.90
25582;DHT22;13462;50.764;4.332;2023-05-01T04:32:06;12.10;99.90
25582;DHT22;13462;50.764;4.332;2023-05-01T04:34:31;12.20;99.90
25582;DHT22;13462;50.764;4.332;2023-05-01T04:36:57;12.20;99.90
25582;DHT22;13462;50.764;4.332;2023-05-01T04:39:22;12.20;99.90
25582;DHT22;13462;50.764;4.332;2023-05-01T04:41:48;12.20;99.90
25582;DHT22;13462;50.764;4.332;2023-05-01T04:44:13;12.20;99.90
25582;DHT22;13462;50.764;4.332;2023-05-01T04:46:39;12.30;99.90
25582;DHT22;13462;50.764;4.332;2023-05-01T04:49:05;12.30;99.90
25582;DHT22;13462;50.764;4.332;2023-05-01T04:51:30;12.30;99.90
25582;DHT22;13462;50.764;4.332;2023-05-01T04:53:56;12.40;99.90
25582;DHT22;13462;50.764;4.332;2023-05-01T04:56:22;12.40;99.90
25582;DHT22;13462;50.764;4.332;2023-05-01T04:58:48;12.50;99.90
25582;DHT22;13462;50.764;4.332;2023-05-01T05:01:14;12.50;99.90
25582;DHT22;13462;50.764;4.332;2023-05-01T05:03:39;12.50;99.90
25582;DHT22;13462;50.764;4.332;2023-05-01T05:06:05;12.40;99.90
25582;DHT22;13462;50.764;4.332;2023-05-01T05:08:30;12.50;99.90
25582;DHT22;13462;50.764;4.332;2023-05-01T05:10:56;12.60;99.90
25582;DHT22;13462;50.764;4.332;2023-05-01T05:13:23;12.70;99.90
25582;DHT22;13462;50.764;4.332;2023-05-01T05:15:48;12.80;99.90
25582;DHT22;13462;50.764;4.332;2023-05-01T05:18:14;12.80;99.90
25582;DHT22;13462;50.764;4.332;2023-05-01T05:20:39;12.90;99.90
25582;DHT22;13462;50.764;4.332;2023-05-01T05:23:05;13.00;99.90
25582;DHT22;13462;50.764;4.332;2023-05-01T05:25:31;13.00;99.90
25582;DHT22;13462;50.764;4.332;2023-05-01T05:27:57;13.20;99.90
25582;DHT22;13462;50.764;4.332;2023-05-01T05:30:23;13.20;99.90
25582;DHT22;13462;50.764;4.332;2023-05-01T05:32:49;13.30;99.90
25582;DHT22;13462;50.764;4.332;2023-05-01T05:35:15;13.20;99.90
25582;DHT22;13462;50.764;4.332;2023-05-01T05:37:40;13.30;99.90
25582;DHT22;13462;50.764;4.332;2023-05-01T05:40:06;13.20;99.90
25582;DHT22;13462;50.764;4.332;2023-05-01T05:42:32;13.10;99.90
25582;DHT22;13462;50.764;4.332;2023-05-01T05:44:58;13.30;99.90
25582;DHT22;13462;50.764;4.332;2023-05-01T05:47:23;13.50;99.90
25582;DHT22;13462;50.764;4.332;2023-05-01T05:49:49;13.60;99.90
25582;DHT22;13462;50.764;4.332;2023-05-01T05:52:14;13.60;99.90
25582;DHT22;13462;50.764;4.332;2023-05-01T05:54:40;13.60;99.90
25582;DHT22;13462;50.764;4.332;2023-05-01T05:57:05;13.50;99.90
25582;DHT22;13462;50.764;4.332;2023-05-01T05:59:31;13.60;99.90
25582;DHT22;13462;50.764;4.332;2023-05-01T06:01:57;13.70;99.90
25582;DHT22;13462;50.764;4.332;2023-05-01T06:04:23;13.70;99.90
25582;DHT22;13462;50.764;4.332;2023-05-01T06:06:48;13.80;99.90
25582;DHT22;13462;50.764;4.332;2023-05-01T06:09:14;13.50;99.90
25582;DHT22;13462;50.764;4.332;2023-05-01T06:11:41;13.70;99.90
25582;DHT22;13462;50.764;4.332;2023-05-01T06:14:06;13.70;99.90
25582;DHT22;13462;50.764;4.332;2023-05-01T06:16:32;13.80;99.90
25582;DHT22;13462;50.764;4.332;2023-05-01T06:18:58;14.00;99.90
25582;DHT22;13462;50.764;4.332;2023-05-01T06:21:24;14.10;99.90
25582;DHT22;13462;50.764;4.332;2023-05-01T06:23:49;14.40;99.90
25582;DHT22;13462;50.764;4.332;2023-05-01T06:26:15;14.60;99.90
25582;DHT22;13462;50.764;4.332;2023-05-01T06:28:40;14.80;99.90
25582;DHT22;13462;50.764;4.332;2023-05-01T06:31:06;14.90;99.90
25582;DHT22;13462;50.764;4.332;2023-05-01T06:33:31;15.20;99.90
25582;DHT22;13462;50.764;4.332;2023-05-01T06:35:58;15.20;99.90
25582;DHT22;13462;50.764;4.332;2023-05-01T06:38:27;15.30;99.90
25582;DHT22;13462;50.764;4.332;2023-05-01T06:40:52;15.40;99.90
25582;DHT22;13462;50.764;4.332;2023-05-01T06:43:18;15.50;99.90
25582;DHT22;13462;50.764;4.332;2023-05-01T06:45:44;15.80;99.90
25582;DHT22;13462;50.764;4.332;2023-05-01T06:48:09;15.50;99.90
25582;DHT22;13462;50.764;4.332;2023-05-01T06:50:35;15.60;99.90
25582;DHT22;13462;50.764;4.332;2023-05-01T06:53:01;15.70;99.90
25582;DHT22;13462;50.764;4.332;2023-05-01T06:55:27;15.90;99.90
25582;DHT22;13462;50.764;4.332;2023-05-01T06:57:56;16.20;99.90
25582;DHT22;13462;50.764;4.332;2023-05-01T07:00:21;16.40;99.90
25582;DHT22;13462;50.764;4.332;2023-05-01T07:02:47;16.20;99.90
25582;DHT22;13462;50.764;4.332;2023-05-01T07:05:12;15.70;99.90
25582;DHT22;13462;50.764;4.332;2023-05-01T07:07:38;16.10;99.90
25582;DHT22;13462;50.764;4.332;2023-05-01T07:10:04;16.40;99.90
25582;DHT22;13462;50.764;4.332;2023-05-01T07:12:29;16.60;99.90
25582;DHT22;13462;50.764;4.332;2023-05-01T07:14:55;17.00;99.90
25582;DHT22;13462;50.764;4.332;2023-05-01T07:17:24;17.40;99.90
25582;DHT22;13462;50.764;4.332;2023-05-01T07:19:49;17.10;99.90
25582;DHT22;13462;50.764;4.332;2023-05-01T07:22:15;17.50;99.90
25582;DHT22;13462;50.764;4.332;2023-05-01T07:24:40;17.60;99.90
25582;DHT22;13462;50.764;4.332;2023-05-01T07:27:06;17.80;99.90
25582;DHT22;13462;50.764;4.332;2023-05-01T07:29:31;18.00;99.90
25582;DHT22;13462;50.764;4.332;2023-05-01T07:31:57;18.30;99.90
25582;DHT22;13462;50.764;4.332;2023-05-01T07:34:23;18.30;99.90
25582;DHT22;13462;50.764;4.332;2023-05-01T07:36:48;18.40;99.90
25582;DHT22;13462;50.764;4.332;2023-05-01T07:39:14;18.30;99.90
25582;DHT22;13462;50.764;4.332;2023-05-01T07:41:39;18.40;99.90
25582;DHT22;13462;50.764;4.332;2023-05-01T07:44:05;18.60;99.90
25582;DHT22;13462;50.764;4.332;2023-05-01T07:46:30;18.50;99.90
25582;DHT22;13462;50.764;4.332;2023-05-01T07:48:56;18.60;99.90
25582;DHT22;13462;50.764;4.332;2023-05-01T07:51:21;18.10;99.90
25582;DHT22;13462;50.764;4.332;2023-05-01T07:53:48;17.90;99.90
25582;DHT22;13462;50.764;4.332;2023-05-01T07:56:13;18.30;99.90
25582;DHT22;13462;50.764;4.332;2023-05-01T07:58:39;18.10;99.90
25582;DHT22;13462;50.764;4.332;2023-05-01T08:01:06;18.30;99.90
25582;DHT22;13462;50.764;4.332;2023-05-01T08:03:33;18.00;99.90
25582;DHT22;13462;50.764;4.332;2023-05-01T08:05:58;18.30;99.90
25582;DHT22;13462;50.764;4.332;2023-05-01T08:08:24;18.20;99.90
25582;DHT22;13462;50.764;4.332;2023-05-01T08:10:50;18.20;99.90
25582;DHT22;13462;50.764;4.332;2023-05-01T08:13:15;18.30;99.90
25582;DHT22;13462;50.764;4.332;2023-05-01T08:15:41;18.30;99.90
25582;DHT22;13462;50.764;4.332;2023-05-01T08:18:07;17.90;99.90
25582;DHT22;13462;50.764;4.332;2023-05-01T08:20:34;17.80;99.90
25582;DHT22;13462;50.764;4.332;2023-05-01T08:22:59;18.10;99.90
25582;DHT22;13462;50.764;4.332;2023-05-01T08:25:25;18.40;99.90
25582;DHT22;13462;50.764;4.332;2023-05-01T08:27:51;18.40;99.90
25582;DHT22;13462;50.764;4.332;2023-05-01T08:30:16;18.60;99.90
25582;DHT22;13462;50.764;4.332;2023-05-01T08:32:42;19.10;99.90
25582;DHT22;13462;50.764;4.332;2023-05-01T08:35:07;19.50;99.90
25582;DHT22;13462;50.764;4.332;2023-05-01T08:37:33;20.80;99.90
25582;DHT22;13462;50.764;4.332;2023-05-01T08:39:59;20.70;99.90
25582;DHT22;13462;50.764;4.332;2023-05-01T08:42:25;20.10;99.90
25582;DHT22;13462;50.764;4.332;2023-05-01T08:44:51;20.00;99.90
25582;DHT22;13462;50.764;4.332;2023-05-01T08:47:18;20.00;99.90
25582;DHT22;13462;50.764;4.332;2023-05-01T08:49:44;20.20;99.90
25582;DHT22;13462;50.764;4.332;2023-05-01T08:52:10;20.90;99.90
25582;DHT22;13462;50.764;4.332;2023-05-01T08:54:43;21.50;99.90
25582;DHT22;13462;50.764;4.332;2023-05-01T08:57:09;20.90;99.90
25582;DHT22;13462;50.764;4.332;2023-05-01T08:59:35;20.80;99.90
25582;DHT22;13462;50.764;4.332;2023-05-01T09:02:02;20.50;99.90
25582;DHT22;13462;50.764;4.332;2023-05-01T09:04:30;20.90;99.90
25582;DHT22;13462;50.764;4.332;2023-05-01T09:06:57;21.30;99.90
25582;DHT22;13462;50.764;4.332;2023-05-01T09:09:25;21.50;99.90
25582;DHT22;13462;50.764;4.332;2023-05-01T09:11:51;20.90;99.90
25582;DHT22;13462;50.764;4.332;2023-05-01T09:14:17;20.90;99.90
25582;DHT22;13462;50.764;4.332;2023-05-01T09:16:43;20.70;99.90
25582;DHT22;13462;50.764;4.332;2023-05-01T09:19:08;20.60;99.90
25582;DHT22;13462;50.764;4.332;2023-05-01T09:21:34;20.40;99.90
25582;DHT22;13462;50.764;4.332;2023-05-01T09:23:59;20.20;99.90
25582;DHT22;13462;50.764;4.332;2023-05-01T09:26:26;20.40;99.90
25582;DHT22;13462;50.764;4.332;2023-05-01T09:28:52;21.00;99.90
25582;DHT22;13462;50.764;4.332;2023-05-01T09:33:52;21.00;99.90
25582;DHT22;13462;50.764;4.332;2023-05-01T09:36:18;21.80;99.90
25582;DHT22;13462;50.764;4.332;2023-05-01T09:38:44;22.70;99.90
25582;DHT22;13462;50.764;4.332;2023-05-01T09:41:09;23.20;99.10
25582;DHT22;13462;50.764;4.332;2023-05-01T09:43:35;23.90;96.80
25582;DHT22;13462;50.764;4.332;2023-05-01T09:46:05;24.90;97.40
25582;DHT22;13462;50.764;4.332;2023-05-01T09:48:31;26.20;94.90
25582;DHT22;13462;50.764;4.332;2023-05-01T09:50:57;26.90;92.80
25582;DHT22;13462;50.764;4.332;2023-05-01T09:53:36;26.60;92.20
25582;DHT22;13462;50.764;4.332;2023-05-01T09:56:02;26.30;91.20
25582;DHT22;13462;50.764;4.332;2023-05-01T09:58:27;25.20;91.90
25582;DHT22;13462;50.764;4.332;2023-05-01T10:00:53;24.90;93.10
25582;DHT22;13462;50.764;4.332;2023-05-01T10:03:18;24.90;93.80
25582;DHT22;13462;50.764;4.332;2023-05-01T10:05:44;24.80;93.60
25582;DHT22;13462;50.764;4.332;2023-05-01T10:08:09;24.60;93.90
25582;DHT22;13462;50.764;4.332;2023-05-01T10:10:39;23.60;92.50
25582;DHT22;13462;50.764;4.332;2023-05-01T10:13:17;22.90;94.10
25582;DHT22;13462;50.764;4.332;2023-05-01T10:15:43;22.60;94.10
25582;DHT22;13462;50.764;4.332;2023-05-01T10:18:09;22.80;94.10
25582;DHT22;13462;50.764;4.332;2023-05-01T10:20:36;23.20;93.60
25582;DHT22;13462;50.764;4.332;2023-05-01T10:23:01;23.20;94.70
25582;DHT22;13462;50.764;4.332;2023-05-01T10:25:30;23.70;93.30
25582;DHT22;13462;50.764;4.332;2023-05-01T10:27:56;24.60;93.10
25582;DHT22;13462;50.764;4.332;2023-05-01T10:30:22;24.60;91.10
25582;DHT22;13462;50.764;4.332;2023-05-01T10:32:47;24.00;93.00
25582;DHT22;13462;50.764;4.332;2023-05-01T10:37:46;23.40;93.20
25582;DHT22;13462;50.764;4.332;2023-05-01T10:45:37;24.30;92.60
25582;DHT22;13462;50.764;4.332;2023-05-01T10:48:02;25.10;91.10
25582;DHT22;13462;50.764;4.332;2023-05-01T10:50:28;26.50;90.00
25582;DHT22;13462;50.764;4.332;2023-05-01T10:55:39;26.90;88.30
25582;DHT22;13462;50.764;4.332;2023-05-01T10:58:07;27.20;90.00
25582;DHT22;13462;50.764;4.332;2023-05-01T11:00:33;27.70;88.50
25582;DHT22;13462;50.764;4.332;2023-05-01T11:08:33;27.10;82.00
25582;DHT22;13462;50.764;4.332;2023-05-01T11:19:06;24.90;87.70
25582;DHT22;13462;50.764;4.332;2023-05-01T11:21:33;24.60;90.30
25582;DHT22;13462;50.764;4.332;2023-05-01T11:23:59;24.40;91.10
25582;DHT22;13462;50.764;4.332;2023-05-01T11:26:27;24.60;90.20
25582;DHT22;13462;50.764;4.332;2023-05-01T11:28:53;24.00;88.70
25582;DHT22;13462;50.764;4.332;2023-05-01T11:31:19;23.00;90.50
25582;DHT22;13462;50.764;4.332;2023-05-01T11:33:45;22.80;91.80
25582;DHT22;13462;50.764;4.332;2023-05-01T11:36:11;22.30;92.10
25582;DHT22;13462;50.764;4.332;2023-05-01T11:38:48;22.20;93.00
25582;DHT22;13462;50.764;4.332;2023-05-01T11:41:13;22.00;93.80
25582;DHT22;13462;50.764;4.332;2023-05-01T11:43:51;22.10;92.50
25582;DHT22;13462;50.764;4.332;2023-05-01T11:46:23;22.00;92.30
25582;DHT22;13462;50.764;4.332;2023-05-01T11:48:52;22.00;92.90
25582;DHT22;13462;50.764;4.332;2023-05-01T11:51:17;21.50;92.90
25582;DHT22;13462;50.764;4.332;2023-05-01T11:53:56;21.30;92.40
25582;DHT22;13462;50.764;4.332;2023-05-01T11:56:22;21.60;93.50
25582;DHT22;13462;50.764;4.332;2023-05-01T11:58:48;21.20;93.40
25582;DHT22;13462;50.764;4.332;2023-05-01T12:01:14;21.20;94.20
25582;DHT22;13462;50.764;4.332;2023-05-01T12:03:40;21.50;93.20
25582;DHT22;13462;50.764;4.332;2023-05-01T12:06:07;21.80;92.00
25582;DHT22;13462;50.764;4.332;2023-05-01T12:08:32;22.20;92.40
25582;DHT22;13462;50.764;4.332;2023-05-01T12:10:58;22.70;92.90
25582;DHT22;13462;50.764;4.332;2023-05-01T12:13:24;22.90;91.20
25582;DHT22;13462;50.764;4.332;2023-05-01T12:15:51;23.20;89.40
25582;DHT22;13462;50.764;4.332;2023-05-01T12:18:17;22.60;90.70
25582;DHT22;13462;50.764;4.332;2023-05-01T12:23:10;23.20;90.70
25582;DHT22;13462;50.764;4.332;2023-05-01T12:25:36;23.30;90.50
25582;DHT22;13462;50.764;4.332;2023-05-01T12:30:34;22.90;90.80
25582;DHT22;13462;50.764;4.332;2023-05-01T12:33:05;23.00;88.90
25582;DHT22;13462;50.764;4.332;2023-05-01T12:35:31;23.70;90.90
25582;DHT22;13462;50.764;4.332;2023-05-01T12:37:57;24.30;89.00
25582;DHT22;13462;50.764;4.332;2023-05-01T12:40:24;24.70;86.90
25582;DHT22;13462;50.764;4.332;2023-05-01T12:42:53;24.80;84.70
25582;DHT22;13462;50.764;4.332;2023-05-01T12:45:19;25.40;87.00
25582;DHT22;13462;50.764;4.332;2023-05-01T12:47:44;26.40;82.50
25582;DHT22;13462;50.764;4.332;2023-05-01T12:50:10;25.50;81.80
25582;DHT22;13462;50.764;4.332;2023-05-01T12:52:36;24.40;80.90
25582;DHT22;13462;50.764;4.332;2023-05-01T12:55:02;24.30;86.70
25582;DHT22;13462;50.764;4.332;2023-05-01T12:57:28;23.70;84.80
25582;DHT22;13462;50.764;4.332;2023-05-01T12:59:57;23.30;87.30
25582;DHT22;13462;50.764;4.332;2023-05-01T13:02:28;22.70;88.70
25582;DHT22;13462;50.764;4.332;2023-05-01T13:05:03;22.00;90.60
25582;DHT22;13462;50.764;4.332;2023-05-01T13:07:29;21.70;91.00
25582;DHT22;13462;50.764;4.332;2023-05-01T13:09:56;21.40;91.70
25582;DHT22;13462;50.764;4.332;2023-05-01T13:12:26;21.20;92.30
25582;DHT22;13462;50.764;4.332;2023-05-01T13:14:52;21.00;92.00
25582;DHT22;13462;50.764;4.332;2023-05-01T13:17:27;20.50;93.30
25582;DHT22;13462;50.764;4.332;2023-05-01T13:19:54;20.30;95.00
25582;DHT22;13462;50.764;4.332;2023-05-01T13:22:32;20.20;96.40
25582;DHT22;13462;50.764;4.332;2023-05-01T13:24:58;20.20;94.80
25582;DHT22;13462;50.764;4.332;2023-05-01T13:27:24;20.00;93.80
25582;DHT22;13462;50.764;4.332;2023-05-01T13:29:56;20.30;95.10
25582;DHT22;13462;50.764;4.332;2023-05-01T13:32:23;20.60;94.00
25582;DHT22;13462;50.764;4.332;2023-05-01T13:34:49;21.30;94.40
25582;DHT22;13462;50.764;4.332;2023-05-01T13:37:14;21.90;91.40
25582;DHT22;13462;50.764;4.332;2023-05-01T13:39:40;22.90;91.60
25582;DHT22;13462;50.764;4.332;2023-05-01T13:42:07;22.80;90.90
25582;DHT22;13462;50.764;4.332;2023-05-01T13:44:32;23.20;89.30
25582;DHT22;13462;50.764;4.332;2023-05-01T13:47:06;23.00;89.60
25582;DHT22;13462;50.764;4.332;2023-05-01T13:49:32;22.70;87.90
25582;DHT22;13462;50.764;4.332;2023-05-01T13:51:57;22.00;90.00
25582;DHT22;13462;50.764;4.332;2023-05-01T13:54:23;21.60;90.90
25582;DHT22;13462;50.764;4.332;2023-05-01T13:56:48;21.50;91.00
25582;DHT22;13462;50.764;4.332;2023-05-01T13:59:14;21.50;92.30
25582;DHT22;13462;50.764;4.332;2023-05-01T14:01:41;21.40;91.90
25582;DHT22;13462;50.764;4.332;2023-05-01T14:04:14;21.50;91.90
25582;DHT22;13462;50.764;4.332;2023-05-01T14:06:40;21.60;92.00
25582;DHT22;13462;50.764;4.332;2023-05-01T14:09:07;21.80;92.10
25582;DHT22;13462;50.764;4.332;2023-05-01T14:11:32;22.20;92.80
25582;DHT22;13462;50.764;4.332;2023-05-01T14:13:58;22.50;92.70
25582;DHT22;13462;50.764;4.332;2023-05-01T14:16:25;22.80;91.30
25582;DHT22;13462;50.764;4.332;2023-05-01T14:18:54;23.00;91.10
25582;DHT22;13462;50.764;4.332;2023-05-01T14:21:21;22.90;90.30
25582;DHT22;13462;50.764;4.332;2023-05-01T14:23:48;23.20;91.60
25582;DHT22;13462;50.764;4.332;2023-05-01T14:26:17;23.10;90.00
25582;DHT22;13462;50.764;4.332;2023-05-01T14:28:44;22.80;89.30
25582;DHT22;13462;50.764;4.332;2023-05-01T14:31:31;22.30;89.10
25582;DHT22;13462;50.764;4.332;2023-05-01T14:34:04;22.00;90.30
25582;DHT22;13462;50.764;4.332;2023-05-01T14:36:30;22.00;91.40
25582;DHT22;13462;50.764;4.332;2023-05-01T14:39:00;21.90;90.90
25582;DHT22;13462;50.764;4.332;2023-05-01T14:41:26;22.00;92.10
25582;DHT22;13462;50.764;4.332;2023-05-01T14:43:53;22.10;91.20
25582;DHT22;13462;50.764;4.332;2023-05-01T14:46:32;22.30;91.00
25582;DHT22;13462;50.764;4.332;2023-05-01T14:48:58;22.10;90.70
25582;DHT22;13462;50.764;4.332;2023-05-01T14:51:25;22.00;90.10
25582;DHT22;13462;50.764;4.332;2023-05-01T14:53:51;22.00;91.50
25582;DHT22;13462;50.764;4.332;2023-05-01T14:56:17;21.90;91.20
25582;DHT22;13462;50.764;4.332;2023-05-01T14:58:42;21.70;92.00
25582;DHT22;13462;50.764;4.332;2023-05-01T15:01:08;21.70;92.00
25582;DHT22;13462;50.764;4.332;2023-05-01T15:03:33;21.80;92.70
25582;DHT22;13462;50.764;4.332;2023-05-01T15:06:08;21.50;92.40
25582;DHT22;13462;50.764;4.332;2023-05-01T15:08:34;21.70;92.30
25582;DHT22;13462;50.764;4.332;2023-05-01T15:10:59;21.40;91.90
25582;DHT22;13462;50.764;4.332;2023-05-01T15:13:25;20.80;92.60
25582;DHT22;13462;50.764;4.332;2023-05-01T15:15:50;20.70;92.40
25582;DHT22;13462;50.764;4.332;2023-05-01T15:18:17;20.30;92.90
25582;DHT22;13462;50.764;4.332;2023-05-01T15:20:42;20.30;94.30
25582;DHT22;13462;50.764;4.332;2023-05-01T15:23:08;20.10;93.00
25582;DHT22;13462;50.764;4.332;2023-05-01T15:25:35;20.00;93.80
25582;DHT22;13462;50.764;4.332;2023-05-01T15:28:00;19.80;93.90
25582;DHT22;13462;50.764;4.332;2023-05-01T15:30:26;19.50;94.20
25582;DHT22;13462;50.764;4.332;2023-05-01T15:32:51;19.50;93.70
25582;DHT22;13462;50.764;4.332;2023-05-01T15:35:19;19.50;94.20
25582;DHT22;13462;50.764;4.332;2023-05-01T15:37:45;19.70;95.10
25582;DHT22;13462;50.764;4.332;2023-05-01T15:40:11;19.80;94.50
25582;DHT22;13462;50.764;4.332;2023-05-01T15:42:37;19.90;94.60
25582;DHT22;13462;50.764;4.332;2023-05-01T15:45:03;20.20;93.50
25582;DHT22;13462;50.764;4.332;2023-05-01T15:47:28;20.40;93.70
25582;DHT22;13462;50.764;4.332;2023-05-01T15:49:54;20.50;93.90
25582;DHT22;13462;50.764;4.332;2023-05-01T15:52:20;20.50;93.90
25582;DHT22;13462;50.764;4.332;2023-05-01T15:54:45;20.30;93.60
25582;DHT22;13462;50.764;4.332;2023-05-01T15:57:12;20.30;93.80
25582;DHT22;13462;50.764;4.332;2023-05-01T15:59:38;20.40;94.30
25582;DHT22;13462;50.764;4.332;2023-05-01T16:02:04;20.40;93.50
25582;DHT22;13462;50.764;4.332;2023-05-01T16:04:31;20.10;93.70
25582;DHT22;13462;50.764;4.332;2023-05-01T16:06:57;19.90;93.70
25582;DHT22;13462;50.764;4.332;2023-05-01T16:09:23;19.50;94.60
25582;DHT22;13462;50.764;4.332;2023-05-01T16:11:52;19.40;94.50
25582;DHT22;13462;50.764;4.332;2023-05-01T16:14:17;19.20;94.60